Time;durP1;ratioP1;P1;durP2;ratioP2;P2;SDS_P1;SDS_P2;PMS_P1;PMS_P2;Temp;Humidity;BMP_temperature;BMP_pressure;BME280_temperature;BME280_humidity;BME280_pressure;Samples;Min_cycle;Max_cycle;Signal;HPM_P1;HPM_P2
2022/12/09 00:02:50;;;;;;;19.27;13.70;;;;;;;4.50;56.70;96970.84;8378381;28;20220;-73
2022/12/09 00:06:55;;;;;;;21.57;14.63;;;;;;;4.50;57.71;96973.41;8378051;28;20234;-73
2022/12/09 00:10:58;;;;;;;19.27;13.97;;;;;;;4.95;57.26;96968.38;8378008;28;20230;-73
2022/12/09 00:15:00;;;;;;;18.83;14.20;;;;;;;5.13;56.65;96969.41;8377802;28;20230;-73
2022/12/09 00:19:06;;;;;;;17.33;13.30;;;;;;;5.19;56.19;96982.00;8377881;28;20300;-73
2022/12/09 00:23:10;;;;;;;17.70;13.70;;;;;;;5.27;56.19;96970.56;8377905;28;20238;-73
2022/12/09 00:27:13;;;;;;;16.67;14.03;;;;;;;5.12;56.46;96971.13;8377676;28;20296;-74
2022/12/09 00:31:18;;;;;;;19.03;14.40;;;;;;;5.11;56.17;96960.94;8377445;28;20300;-74
2022/12/09 00:35:22;;;;;;;16.37;13.30;;;;;;;5.28;56.58;96969.66;8377450;28;20235;-75
2022/12/09 00:39:26;;;;;;;17.17;13.03;;;;;;;5.34;56.56;96965.19;8377440;28;20228;-74
2022/12/09 00:43:29;;;;;;;13.43;11.53;;;;;;;5.29;56.11;96963.63;8377649;28;20225;-73
2022/12/09 00:47:31;;;;;;;15.13;11.87;;;;;;;5.34;56.17;96960.88;8377043;28;20266;-74
2022/12/09 00:51:35;;;;;;;17.13;13.87;;;;;;;5.16;57.13;96962.44;8377319;28;20429;-72
2022/12/09 00:55:39;;;;;;;15.50;12.43;;;;;;;5.35;56.58;96959.13;8377155;28;20260;-72
2022/12/09 00:59:42;;;;;;;15.60;12.20;;;;;;;5.29;55.76;96953.38;8377378;28;20276;-73
2022/12/09 01:03:45;;;;;;;13.53;12.07;;;;;;;5.24;56.27;96954.44;8376928;28;20341;-73
2022/12/09 01:07:48;;;;;;;14.97;11.53;;;;;;;5.19;55.82;96956.34;8376809;28;20249;-73
2022/12/09 01:11:52;;;;;;;14.87;11.23;;;;;;;5.15;56.25;96957.38;8381784;28;20221;-73
2022/12/09 01:15:55;;;;;;;13.90;10.87;;;;;;;5.15;56.42;96958.19;8382194;28;20236;-73
2022/12/09 01:19:59;;;;;;;11.70;9.67;;;;;;;4.92;56.17;96963.38;8383002;28;20508;-73
2022/12/09 01:24:06;;;;;;;14.13;10.57;;;;;;;5.17;56.60;96963.28;8382636;28;20243;-73
2022/12/09 01:28:10;;;;;;;11.93;10.50;;;;;;;5.21;56.28;96952.81;8382770;28;20248;-73
2022/12/09 01:32:13;;;;;;;13.40;10.77;;;;;;;5.19;56.13;96952.03;8382532;28;20271;-73
2022/12/09 01:36:19;;;;;;;11.77;9.70;;;;;;;5.18;56.06;96960.66;8382100;28;21066;-73
2022/12/09 01:40:22;;;;;;;11.23;9.73;;;;;;;5.06;55.95;96950.84;8382364;28;20351;-73
2022/12/09 01:44:26;;;;;;;12.17;10.33;;;;;;;4.78;56.74;96949.34;8381890;28;20315;-73
2022/12/09 01:48:31;;;;;;;13.93;10.63;;;;;;;5.11;55.88;96941.25;8382060;28;20225;-73
2022/12/09 01:52:34;;;;;;;13.90;10.80;;;;;;;4.98;56.16;96934.91;8381956;28;20227;-73
2022/12/09 01:56:37;;;;;;;11.87;9.57;;;;;;;5.04;55.45;96932.94;8381771;28;20290;-73
2022/12/09 02:00:41;;;;;;;13.00;10.03;;;;;;;5.02;55.69;96928.75;8381615;28;20237;-73
2022/12/09 02:04:46;;;;;;;12.00;9.60;;;;;;;5.02;55.40;96919.31;8381352;28;20248;-73
2022/12/09 02:08:50;;;;;;;12.13;9.93;;;;;;;4.96;56.02;96917.00;8381163;28;20305;-73
2022/12/09 02:13:02;;;;;;;12.47;10.70;;;;;;;5.00;55.54;96904.91;8380652;28;20224;-73
2022/12/09 02:17:17;;;;;;;11.67;10.40;;;;;;;4.88;55.90;96912.16;8380977;28;20344;-73
2022/12/09 02:21:25;;;;;;;16.77;11.70;;;;;;;4.79;55.84;96881.72;8380797;28;20362;-73
2022/12/09 02:25:30;;;;;;;15.23;11.00;;;;;;;4.73;56.18;96901.66;8380635;28;20266;-73
2022/12/09 02:29:59;;;;;;;14.27;10.83;;;;;;;4.55;56.35;96903.19;8380862;28;20226;-73
2022/12/09 02:34:08;;;;;;;12.90;11.23;;;;;;;4.45;57.26;96905.25;8380106;28;20248;-72
2022/12/09 02:38:13;;;;;;;12.20;10.73;;;;;;;4.65;56.37;96904.53;8380254;28;20246;-72
2022/12/09 02:42:17;;;;;;;14.20;10.87;;;;;;;4.66;56.61;96906.19;8380231;28;20231;-72
2022/12/09 02:46:20;;;;;;;13.27;10.23;;;;;;;4.78;55.79;96895.47;8379957;28;20340;-73
2022/12/09 02:50:27;;;;;;;12.70;10.23;;;;;;;4.60;56.39;96891.84;8380168;28;20520;-73
2022/12/09 02:54:31;;;;;;;11.67;10.23;;;;;;;4.89;56.06;96884.78;8380044;28;20251;-73
2022/12/09 02:58:34;;;;;;;13.13;10.40;;;;;;;4.83;56.46;96877.31;8379616;28;20255;-73
2022/12/09 03:02:39;;;;;;;10.93;9.80;;;;;;;5.02;55.84;96873.13;8379767;28;20221;-73
2022/12/09 03:06:47;;;;;;;11.40;10.23;;;;;;;4.93;55.37;96872.66;8379545;28;20225;-73
2022/12/09 03:10:54;;;;;;;11.70;9.90;;;;;;;4.83;56.02;96869.63;8379554;28;20536;-73
2022/12/09 03:14:57;;;;;;;11.50;10.27;;;;;;;4.69;56.01;96849.66;8379013;28;20240;-73
2022/12/09 03:19:04;;;;;;;12.77;10.40;;;;;;;4.89;55.13;96871.94;8379195;28;20245;-73
2022/12/09 03:23:10;;;;;;;13.67;10.83;;;;;;;4.77;55.35;96863.00;8379263;28;20233;-73
2022/12/09 03:27:18;;;;;;;12.83;10.07;;;;;;;4.75;55.17;96864.78;8379377;28;20248;-72
2022/12/09 03:31:24;;;;;;;11.17;9.87;;;;;;;4.77;55.27;96868.13;8379386;28;20236;-72
2022/12/09 03:35:32;;;;;;;13.50;10.83;;;;;;;4.44;55.46;96867.69;8379390;28;20307;-72
2022/12/09 03:39:38;;;;;;;11.40;10.03;;;;;;;4.73;55.61;96865.75;8379351;28;20535;-72
2022/12/09 03:43:46;;;;;;;12.63;9.67;;;;;;;4.50;55.63;96836.69;8379273;28;20225;-72
2022/12/09 03:47:49;;;;;;;12.77;10.10;;;;;;;4.51;55.64;96861.44;8378956;28;20270;-72
2022/12/09 03:51:56;;;;;;;13.30;10.13;;;;;;;4.49;55.88;96843.56;8378786;28;20489;-71
2022/12/09 03:56:03;;;;;;;11.83;10.13;;;;;;;4.38;56.45;96852.53;8378812;28;20235;-72
2022/12/09 04:00:07;;;;;;;11.83;10.40;;;;;;;4.46;55.83;96858.22;8378833;28;20255;-73
2022/12/09 04:04:11;;;;;;;12.97;11.03;;;;;;;4.44;55.24;96845.47;8378723;28;20228;-72
2022/12/09 04:08:14;;;;;;;13.13;10.77;;;;;;;4.56;55.81;96864.66;8379134;28;20408;-73
2022/12/09 04:12:19;;;;;;;13.23;10.60;;;;;;;4.62;55.36;96864.41;8378746;28;20287;-72
2022/12/09 04:16:22;;;;;;;10.87;9.67;;;;;;;4.53;54.84;96835.72;8378726;28;20229;-73
2022/12/09 04:20:25;;;;;;;11.40;9.30;;;;;;;4.56;56.00;96851.00;8378629;28;20228;-73
2022/12/09 04:24:28;;;;;;;11.70;9.90;;;;;;;4.64;55.72;96846.41;8378174;28;20536;-73
2022/12/09 04:28:32;;;;;;;14.50;11.90;;;;;;;4.73;55.60;96843.50;8378549;28;20419;-73
2022/12/09 04:32:35;;;;;;;12.53;10.07;;;;;;;4.77;55.56;96837.34;8378461;28;20449;-73
2022/12/09 04:36:38;;;;;;;12.10;10.80;;;;;;;4.75;55.54;96833.19;8378050;28;20225;-73
2022/12/09 04:40:41;;;;;;;12.97;10.97;;;;;;;4.68;55.73;96835.13;8378169;28;20275;-73
2022/12/09 04:44:46;;;;;;;14.10;11.80;;;;;;;4.68;56.25;96836.00;8379520;28;20233;-73
2022/12/09 04:48:48;;;;;;;17.07;13.40;;;;;;;4.69;55.68;96839.38;8384632;28;20335;-73
2022/12/09 04:52:51;;;;;;;17.33;14.17;;;;;;;4.72;56.14;96834.13;8383915;28;20225;-73
2022/12/09 04:56:54;;;;;;;15.47;11.40;;;;;;;4.86;55.80;96833.59;8382820;28;20279;-72
2022/12/09 05:00:58;;;;;;;12.00;10.57;;;;;;;4.67;55.74;96826.63;8382784;28;20427;-73
2022/12/09 05:05:02;;;;;;;13.87;11.40;;;;;;;4.75;55.72;96828.06;8382767;28;20236;-73
2022/12/09 05:09:05;;;;;;;15.67;12.07;;;;;;;4.82;56.15;96827.75;8382479;28;20232;-73
2022/12/09 05:13:08;;;;;;;12.93;10.83;;;;;;;4.80;56.23;96821.03;8382471;28;20528;-73
2022/12/09 05:17:12;;;;;;;13.57;11.07;;;;;;;4.88;56.09;96818.97;8382519;28;20236;-73
2022/12/09 05:21:17;;;;;;;13.17;11.60;;;;;;;4.56;56.60;96815.94;8382257;28;20247;-73
2022/12/09 05:25:21;;;;;;;14.07;12.00;;;;;;;4.74;56.49;96806.72;8382298;28;20228;-73
2022/12/09 05:29:23;;;;;;;14.70;10.93;;;;;;;4.81;56.19;96807.28;8382492;28;20367;-73
2022/12/09 05:33:28;;;;;;;14.47;11.07;;;;;;;4.70;55.96;96779.50;8382084;28;20274;-73
2022/12/09 05:37:31;;;;;;;14.83;12.20;;;;;;;4.69;56.68;96796.63;8381886;28;20274;-73
2022/12/09 05:41:34;;;;;;;13.73;11.83;;;;;;;4.74;56.03;96790.47;8381774;28;20232;-73
2022/12/09 05:45:36;;;;;;;14.80;11.93;;;;;;;4.66;56.34;96785.63;8381409;28;20243;-73
2022/12/09 05:49:41;;;;;;;17.13;13.07;;;;;;;4.75;55.99;96792.97;8381584;28;20247;-73
2022/12/09 05:53:44;;;;;;;14.03;12.00;;;;;;;4.70;56.43;96775.22;8381317;28;20225;-74
2022/12/09 05:57:48;;;;;;;12.43;10.87;;;;;;;4.78;56.29;96780.03;8380462;28;20243;-74
2022/12/09 06:01:52;;;;;;;14.37;11.73;;;;;;;4.82;56.06;96771.31;8381148;28;20232;-74
2022/12/09 06:05:56;;;;;;;12.37;10.63;;;;;;;4.83;55.84;96762.72;8380718;28;20223;-74
2022/12/09 06:10:00;;;;;;;14.37;11.50;;;;;;;4.68;55.86;96761.63;8381150;28;20239;-73
2022/12/09 06:14:04;;;;;;;13.57;10.97;;;;;;;4.64;55.88;96762.63;8380903;28;20329;-73
2022/12/09 06:18:07;;;;;;;14.40;11.50;;;;;;;4.29;56.42;96762.28;8380937;28;20346;-74
2022/12/09 06:22:11;;;;;;;13.70;11.20;;;;;;;4.49;56.10;96758.97;8380995;28;20239;-74
2022/12/09 06:26:17;;;;;;;15.87;12.20;;;;;;;4.48;55.96;96757.28;8380720;28;20474;-73
2022/12/09 06:30:20;;;;;;;14.93;11.80;;;;;;;4.26;56.47;96738.50;8380782;28;20532;-74
2022/12/09 06:34:23;;;;;;;13.30;11.63;;;;;;;4.64;56.06;96746.41;8380924;28;20229;-74
2022/12/09 06:38:27;;;;;;;14.27;12.17;;;;;;;4.55;56.10;96750.19;8380296;28;20294;-73
2022/12/09 06:42:30;;;;;;;14.07;11.10;;;;;;;4.67;55.97;96744.56;8380901;28;20289;-73
2022/12/09 06:46:33;;;;;;;15.27;12.00;;;;;;;4.47;56.79;96745.38;8380007;28;20389;-72
2022/12/09 06:50:37;;;;;;;16.50;12.90;;;;;;;4.21;56.96;96742.97;8380241;28;20233;-72
2022/12/09 06:54:41;;;;;;;15.57;12.63;;;;;;;4.48;56.77;96739.31;8380434;28;20225;-72
2022/12/09 06:58:45;;;;;;;13.47;11.77;;;;;;;4.62;56.35;96733.63;8380318;28;20255;-73
2022/12/09 07:02:48;;;;;;;15.73;12.73;;;;;;;4.50;56.50;96734.97;8379790;28;20224;-72
2022/12/09 07:06:52;;;;;;;15.70;12.03;;;;;;;4.60;55.89;96743.13;8378598;28;20225;-72
2022/12/09 07:10:56;;;;;;;15.70;13.10;;;;;;;4.56;56.21;96740.75;8378817;28;20505;-72
2022/12/09 07:14:59;;;;;;;14.37;12.10;;;;;;;4.56;56.32;96736.47;8379208;28;20225;-72
2022/12/09 07:19:03;;;;;;;13.77;11.47;;;;;;;4.56;56.52;96744.16;8379139;28;20233;-73
2022/12/09 07:23:07;;;;;;;15.37;11.90;;;;;;;4.76;56.27;96752.75;8379228;28;20251;-72
2022/12/09 07:27:14;;;;;;;18.63;13.83;;;;;;;4.68;55.50;96751.38;8379081;28;20298;-73
2022/12/09 07:31:24;;;;;;;16.47;13.57;;;;;;;4.85;55.85;96757.53;8378801;28;20220;-73
2022/12/09 07:35:27;;;;;;;15.83;12.57;;;;;;;4.78;55.84;96750.97;8378661;28;20417;-73
2022/12/09 07:39:31;;;;;;;15.90;12.43;;;;;;;4.78;55.94;96758.66;8378365;28;20228;-73
2022/12/09 07:43:38;;;;;;;21.40;13.93;;;;;;;4.92;55.62;96755.56;8378550;28;20233;-73
2022/12/09 07:47:40;;;;;;;14.67;12.47;;;;;;;4.86;56.21;96754.91;8378071;28;20233;-73
2022/12/09 07:51:44;;;;;;;18.63;13.80;;;;;;;4.81;55.43;96756.81;8378157;28;20335;-73
2022/12/09 07:55:47;;;;;;;21.80;14.53;;;;;;;4.38;58.13;96755.97;8378362;28;20234;-73
2022/12/09 07:59:52;;;;;;;20.87;14.20;;;;;;;4.73;56.65;96753.72;8377873;28;20515;-73
2022/12/09 08:03:55;;;;;;;14.40;11.63;;;;;;;4.92;56.24;96755.56;8377462;28;20247;-72
2022/12/09 08:07:59;;;;;;;18.10;13.80;;;;;;;5.01;56.03;96745.75;8377641;28;20248;-72
2022/12/09 08:12:02;;;;;;;21.03;14.33;;;;;;;5.03;56.13;96750.81;8377585;28;20233;-73
2022/12/09 08:16:09;;;;;;;23.30;14.10;;;;;;;4.15;56.48;96654.38;8377781;28;20252;-73
2022/12/09 08:20:13;;;;;;;13.67;12.00;;;;;;;4.97;55.95;96739.09;8380978;28;20471;-74
2022/12/09 08:24:17;;;;;;;16.20;12.10;;;;;;;5.11;55.60;96737.66;8384163;28;20228;-74
2022/12/09 08:28:20;;;;;;;14.70;12.33;;;;;;;5.11;55.92;96729.97;8384128;28;20235;-74
2022/12/09 08:32:25;;;;;;;16.87;12.60;;;;;;;5.17;55.71;96727.97;8384163;28;20231;-74
2022/12/09 08:36:28;;;;;;;14.13;12.07;;;;;;;5.21;55.64;96724.38;8383702;28;20229;-75
2022/12/09 08:40:31;;;;;;;14.00;11.87;;;;;;;5.22;55.44;96715.78;8383790;28;20389;-74
2022/12/09 08:44:34;;;;;;;16.77;12.73;;;;;;;5.38;55.77;96717.69;8383577;28;20232;-74
2022/12/09 08:48:40;;;;;;;14.60;12.57;;;;;;;5.23;56.03;96711.47;8383369;28;20389;-74
2022/12/09 08:52:43;;;;;;;19.67;14.20;;;;;;;4.77;57.42;96700.59;8383339;28;20249;-74
2022/12/09 08:56:47;;;;;;;14.13;11.93;;;;;;;5.48;55.89;96706.94;8383513;28;20224;-74
2022/12/09 09:00:51;;;;;;;15.77;12.17;;;;;;;5.51;56.04;96700.84;8383143;28;20474;-74
2022/12/09 09:04:55;;;;;;;15.70;12.13;;;;;;;5.49;56.18;96702.63;8382664;28;20298;-74
2022/12/09 09:08:59;;;;;;;15.37;12.50;;;;;;;5.51;57.14;96700.84;8382886;28;20236;-74
2022/12/09 09:13:03;;;;;;;15.23;11.80;;;;;;;5.62;56.57;96708.91;8383440;28;20241;-74
2022/12/09 09:17:05;;;;;;;14.27;11.93;;;;;;;5.68;56.23;96698.34;8383086;28;20267;-74
2022/12/09 09:21:12;;;;;;;16.23;12.37;;;;;;;5.79;55.75;96702.19;8383004;28;20292;-74
2022/12/09 09:25:15;;;;;;;15.07;13.10;;;;;;;5.66;56.34;96692.44;8383072;28;20232;-74
2022/12/09 09:29:20;;;;;;;24.77;19.70;;;;;;;5.39;57.40;96701.38;8382873;28;20227;-74
2022/12/09 09:33:22;;;;;;;27.50;20.87;;;;;;;5.60;56.16;96692.72;8382452;28;20536;-75
2022/12/09 09:37:27;;;;;;;16.67;14.20;;;;;;;5.63;56.43;96689.19;8382284;28;20284;-74
2022/12/09 09:41:41;;;;;;;17.60;13.90;;;;;;;5.58;56.23;96689.41;8382320;28;20226;-74
2022/12/09 09:45:44;;;;;;;16.43;14.13;;;;;;;5.46;56.53;96683.09;8382093;28;20231;-74
2022/12/09 09:49:50;;;;;;;16.13;13.27;;;;;;;5.73;56.58;96680.16;8382205;28;20246;-74
2022/12/09 09:53:54;;;;;;;19.03;13.47;;;;;;;5.77;56.12;96671.41;8382150;28;20231;-73
2022/12/09 09:58:02;;;;;;;12.13;9.27;;;;;;;9.12;82.33;96672.91;8382202;28;20655;-73
2022/12/09 10:02:16;;;;;;;12.40;10.87;;;;;;;9.46;55.29;96670.91;8382129;28;20666;-75
2022/12/09 10:06:27;;;;;;;13.37;11.23;;;;;;;10.01;51.69;96664.91;8382403;28;20527;-73
2022/12/09 10:10:40;;;;;;;12.30;10.57;;;;;;;10.70;48.93;96659.69;8382011;28;20233;-72
2022/12/09 10:14:50;;;;;;;18.10;16.13;;;;;;;8.10;50.42;96652.84;8381832;28;20267;-73
2022/12/09 10:19:02;;;;;;;15.90;14.30;;;;;;;7.68;51.19;96654.28;8381521;28;20240;-72
2022/12/09 10:23:13;;;;;;;16.47;14.53;;;;;;;7.47;52.01;96653.69;8381618;28;20331;-74
2022/12/09 10:27:28;;;;;;;19.33;15.43;;;;;;;7.19;52.25;96646.56;8382224;28;20248;-74
2022/12/09 10:31:31;;;;;;;15.73;13.40;;;;;;;7.10;53.37;96645.31;8381151;28;20235;-74
2022/12/09 10:35:34;;;;;;;18.10;15.23;;;;;;;6.86;53.84;96644.81;8381387;28;20225;-74
2022/12/09 10:39:38;;;;;;;19.73;17.70;;;;;;;7.48;52.48;96641.63;8380418;28;20432;-74
2022/12/09 10:43:42;;;;;;;21.47;17.53;;;;;;;6.88;53.94;96644.75;8380715;28;20225;-73
2022/12/09 10:47:50;;;;;;;19.30;15.60;;;;;;;6.88;54.02;96635.28;8380942;28;20236;-74
2022/12/09 10:51:54;;;;;;;18.33;16.52;;;;;;;7.26;51.44;96637.63;8379161;28;20410;-72
2022/12/09 10:56:01;;;;;;;17.33;14.47;;;;;;;6.85;53.88;96638.84;8380476;28;20229;-74
2022/12/09 11:00:08;;;;;;;17.90;15.10;;;;;;;6.85;53.28;96630.25;8380457;28;20225;-73
2022/12/09 11:04:13;;;;;;;15.80;13.30;;;;;;;6.84;54.19;96614.00;8380404;28;20499;-73
2022/12/09 11:08:21;;;;;;;15.97;13.60;;;;;;;6.79;53.64;96613.41;8380001;28;20377;-74
2022/12/09 11:12:31;;;;;;;15.93;13.60;;;;;;;6.94;53.64;96610.97;8380033;28;20232;-73
2022/12/09 11:16:44;;;;;;;17.53;14.30;;;;;;;6.80;53.98;96607.34;8379173;28;20413;-73
2022/12/09 11:20:54;;;;;;;27.70;22.67;;;;;;;6.77;54.17;96604.09;8379002;28;20594;-74
2022/12/09 11:25:20;;;;;;;31.70;28.30;;;;;;;6.90;52.16;96600.00;8377543;28;20413;-75
2022/12/09 11:29:24;;;;;;;23.03;18.30;;;;;;;6.67;54.23;96597.75;8379104;28;20373;-75
2022/12/09 11:33:30;;;;;;;54.10;37.50;;;;;;;6.75;54.29;96587.91;8378884;28;20225;-75
2022/12/09 11:37:34;;;;;;;34.50;25.73;;;;;;;6.70;54.12;96592.44;8378838;28;20231;-76
2022/12/09 11:45:57;;;;;;;18.03;14.10;;;;;;;6.84;54.65;96587.44;8377688;28;20528;-75
2022/12/09 11:50:06;;;;;;;34.67;22.43;;;;;;;6.61;54.59;96583.47;8378747;28;20225;-76
2022/12/09 11:54:12;;;;;;;23.40;16.47;;;;;;;6.86;54.30;96583.03;8378034;28;20232;-76
2022/12/09 11:58:20;;;;;;;17.03;13.90;;;;;;;6.94;53.94;96565.47;8378095;28;20221;-76
2022/12/09 12:02:30;;;;;;;16.00;12.60;;;;;;;6.78;53.63;96580.88;8378341;28;20233;-75
2022/12/09 12:06:42;;;;;;;14.37;12.80;;;;;;;6.70;53.22;96556.44;8378333;28;20459;-76
2022/12/09 12:10:47;;;;;;;15.60;12.97;;;;;;;6.72;53.22;96560.59;8377772;28;20536;-76
2022/12/09 12:14:50;;;;;;;17.03;12.00;;;;;;;7.17;52.31;96555.69;8377365;28;20299;-75
2022/12/09 12:18:56;;;;;;;14.63;12.77;;;;;;;7.08;52.79;96546.72;8377097;28;20324;-74
2022/12/09 12:27:45;;;;;;;14.87;12.40;;;;;;;7.27;51.78;96553.47;8379617;27;20565;-73
2022/12/09 12:32:06;;;;;;;14.53;12.63;;;;;;;7.42;52.51;96547.47;8373765;28;20444;-73
2022/12/09 12:36:12;;;;;;;13.43;11.17;;;;;;;7.27;52.04;96520.81;8373236;28;20243;-73
2022/12/09 12:40:25;;;;;;;12.37;11.10;;;;;;;7.40;51.32;96536.44;8373553;28;20225;-73
2022/12/09 12:49:11;;;;;;;13.47;11.67;;;;;;;7.19;50.98;96515.25;8372830;28;20413;-74
2022/12/09 12:53:31;;;;;;;18.23;13.33;;;;;;;7.21;51.52;96514.25;8373577;28;20229;-74
2022/12/09 12:57:38;;;;;;;16.50;12.07;;;;;;;7.34;51.27;96516.16;8374254;28;20232;-76
2022/12/09 13:01:52;;;;;;;18.67;12.37;;;;;;;7.16;50.39;96523.13;8374780;28;20559;-75
2022/12/09 13:05:57;;;;;;;16.53;12.10;;;;;;;7.14;51.55;96512.09;8373244;28;20244;-74
2022/12/09 13:10:03;;;;;;;17.17;13.37;;;;;;;7.06;51.54;96507.34;8391339;28;20571;-75
2022/12/09 13:14:11;;;;;;;14.87;11.17;;;;;;;7.09;50.65;96517.50;8407487;28;20540;-75
2022/12/09 13:18:18;;;;;;;14.57;12.23;;;;;;;7.04;51.51;96509.19;8406746;28;20224;-75
2022/12/09 13:22:22;;;;;;;15.43;12.30;;;;;;;7.17;51.47;96499.06;8406078;28;20228;-75
2022/12/09 13:26:33;;;;;;;12.57;10.37;;;;;;;7.16;50.68;96477.63;8405329;28;20239;-75
2022/12/09 13:30:39;;;;;;;13.53;10.47;;;;;;;7.59;50.75;96498.44;8404728;28;20520;-75
2022/12/09 13:34:48;;;;;;;11.40;10.00;;;;;;;7.44;50.92;96502.72;8404708;28;20224;-76
2022/12/09 13:38:51;;;;;;;13.53;10.80;;;;;;;7.34;51.02;96505.88;8382650;28;20320;-76
2022/12/09 13:42:57;;;;;;;14.63;11.70;;;;;;;7.47;50.44;96509.44;8377651;28;20231;-74
2022/12/09 13:47:24;;;;;;;13.53;10.70;;;;;;;7.01;51.17;96504.22;8383234;28;20248;-75
2022/12/09 13:51:44;;;;;;;15.80;10.93;;;;;;;7.16;49.74;96482.78;8383134;28;20533;-75
2022/12/09 13:55:52;;;;;;;19.63;14.97;;;;;;;7.28;50.59;96503.63;8382246;28;20240;-76
2022/12/09 13:59:56;;;;;;;12.93;11.53;;;;;;;7.00;50.99;96512.81;8381964;28;20225;-75
2022/12/09 14:04:08;;;;;;;13.23;10.77;;;;;;;6.77;51.11;96504.56;8382013;28;20240;-75
2022/12/09 14:08:19;;;;;;;12.70;10.33;;;;;;;6.79;50.76;96512.22;8382074;28;20233;-75
2022/12/09 14:13:03;;;;;;;13.77;10.33;;;;;;;6.86;50.84;96518.72;8381931;28;20287;-75
2022/12/09 14:17:35;;;;;;;14.50;9.53;;;;;;;6.98;51.04;96499.22;8309256;28;20240;-76
2022/12/09 14:21:38;;;;;;;13.37;10.57;;;;;;;6.93;50.96;96491.75;8381762;28;20274;-76
2022/12/09 14:25:58;;;;;;;10.87;9.20;;;;;;;6.64;50.28;96524.13;8381890;28;20473;-75
2022/12/09 14:30:02;;;;;;;10.93;9.10;;;;;;;6.83;51.43;96524.00;8381040;28;20225;-75
2022/12/09 14:34:17;;;;;;;11.90;9.07;;;;;;;6.96;51.25;96530.16;8382008;28;20438;-75
2022/12/09 14:38:23;;;;;;;18.97;9.70;;;;;;;6.96;51.37;96529.34;8381368;28;20221;-75
2022/12/09 14:42:35;;;;;;;21.33;11.17;;;;;;;6.71;51.81;96532.38;8381159;28;20221;-75
2022/12/09 14:46:40;;;;;;;22.13;10.83;;;;;;;6.79;51.59;96549.06;8381044;28;20240;-76
2022/12/09 14:50:43;;;;;;;18.77;10.17;;;;;;;6.88;52.22;96552.91;8380098;28;20552;-76
2022/12/09 14:54:47;;;;;;;15.33;9.83;;;;;;;6.77;52.44;96563.75;8380747;28;20236;-75
2022/12/09 14:58:54;;;;;;;14.47;9.97;;;;;;;6.69;52.42;96536.78;8380654;28;20547;-75
2022/12/09 15:02:57;;;;;;;13.77;9.83;;;;;;;6.75;52.90;96555.28;8379911;28;20229;-73
2022/12/09 15:07:23;;;;;;;13.80;10.80;;;;;;;7.32;51.65;96552.31;8378137;28;20437;-73
2022/12/09 15:11:30;;;;;;;20.30;12.17;;;;;;;6.71;52.57;96555.53;8380212;28;20324;-72
2022/12/09 15:15:37;;;;;;;12.20;9.90;;;;;;;6.60;52.87;96549.19;8379477;28;20277;-73
2022/12/09 15:19:40;;;;;;;12.80;9.80;;;;;;;6.55;52.79;96543.47;8378906;28;20241;-73
2022/12/09 15:24:03;;;;;;;25.13;11.03;;;;;;;6.52;53.16;96550.50;8378834;28;20550;-73
2022/12/09 15:28:17;;;;;;;18.00;10.37;;;;;;;6.40;52.52;96541.66;8379051;28;20520;-72
2022/12/09 15:32:30;;;;;;;11.40;10.17;;;;;;;6.43;52.80;96551.78;8379228;28;20294;-73
2022/12/09 15:36:34;;;;;;;13.57;10.67;;;;;;;6.41;52.83;96557.00;8378597;28;20290;-73
2022/12/09 15:42:05;;;;;;;15.30;13.30;;;;;;;6.78;51.79;96542.28;8378588;28;20417;-72
2022/12/09 15:45:04;;;;;;;15.63;12.20;;;;;;;6.49;52.56;96538.59;8378251;28;20239;-70
2022/12/09 15:49:10;;;;;;;16.03;12.60;;;;;;;6.37;52.60;96544.38;8379308;28;20233;-73
2022/12/09 15:53:15;;;;;;;15.25;13.27;;;;;;;6.36;53.11;96547.84;8378820;28;20513;-75
2022/12/09 15:57:20;;;;;;;17.27;15.48;;;;;;;6.99;50.83;96536.91;8376831;28;20698;-74
2022/12/09 16:01:25;;;;;;;19.50;16.47;;;;;;;6.46;52.17;96557.59;8377904;28;20328;-76
2022/12/09 16:05:29;;;;;;;20.83;16.47;;;;;;;6.25;52.79;96551.78;8378687;28;20243;-74
2022/12/09 16:09:32;;;;;;;30.93;23.33;;;;;;;6.21;52.55;96549.47;8379359;28;20225;-74
2022/12/09 16:13:36;;;;;;;27.50;19.23;;;;;;;6.33;52.66;96545.44;8378557;28;20220;-74
2022/12/09 16:17:51;;;;;;;22.10;17.53;;;;;;;6.18;52.21;96557.31;8378029;28;20256;-73
2022/12/09 16:21:58;;;;;;;24.92;22.35;;;;;;;6.80;50.15;96539.63;8375902;28;20444;-73
2022/12/09 16:26:02;;;;;;;17.47;14.60;;;;;;;6.14;52.08;96556.63;8377770;28;20233;-73
2022/12/09 16:30:19;;;;;;;16.37;13.73;;;;;;;6.15;52.35;96566.00;8378211;28;20229;-73
2022/12/09 16:34:22;;;;;;;13.90;11.33;;;;;;;6.09;52.41;96553.44;8377814;28;20224;-73
2022/12/09 16:38:27;;;;;;;13.70;12.27;;;;;;;5.99;52.42;96560.78;8377996;28;20227;-73
2022/12/09 16:42:31;;;;;;;12.77;10.37;;;;;;;5.94;52.49;96543.88;8377929;28;20224;-73
2022/12/09 16:46:41;;;;;;;47.50;33.33;;;;;;;5.90;52.28;96552.66;8377627;28;20225;-72
2022/12/09 16:50:48;;;;;;;41.37;30.10;;;;;;;5.90;52.60;96563.75;8377433;28;20239;-72
2022/12/09 16:54:52;;;;;;;74.70;44.73;;;;;;;5.75;52.02;96565.34;8377846;28;20551;-72
2022/12/09 16:58:55;;;;;;;17.70;13.67;;;;;;;5.73;52.69;96568.84;8377419;28;20236;-73
2022/12/09 17:03:01;;;;;;;14.70;11.27;;;;;;;5.81;52.78;96574.50;8377547;28;20224;-74
2022/12/09 17:07:04;;;;;;;16.60;13.60;;;;;;;5.67;52.87;96573.41;8377564;28;20229;-73
2022/12/09 17:11:09;;;;;;;24.33;19.35;;;;;;;5.93;51.95;96581.59;8378155;28;20414;-78
2022/12/09 17:15:13;;;;;;;85.07;49.17;;;;;;;5.76;54.26;96581.56;8383832;28;20350;-74
2022/12/09 17:19:17;;;;;;;47.73;32.93;;;;;;;5.77;52.63;96588.34;8384355;28;20251;-74
2022/12/09 17:23:20;;;;;;;20.60;18.47;;;;;;;6.43;50.62;96586.03;8381313;28;20465;-74
2022/12/09 17:27:24;;;;;;;20.53;16.03;;;;;;;5.62;52.32;96575.34;8383774;28;20536;-74
2022/12/09 17:31:27;;;;;;;17.27;14.10;;;;;;;5.59;52.66;96582.34;8383686;28;20230;-73
2022/12/09 17:35:32;;;;;;;20.10;16.70;;;;;;;5.97;51.53;96575.44;8383670;28;20405;-73
2022/12/09 17:39:35;;;;;;;28.93;19.17;;;;;;;5.72;52.61;96592.91;8383830;28;20243;-74
2022/12/09 17:43:39;;;;;;;36.40;21.50;;;;;;;5.54;52.60;96603.13;8384250;28;20225;-74
2022/12/09 17:47:42;;;;;;;20.53;14.67;;;;;;;5.62;52.53;96613.88;8384398;28;20515;-74
2022/12/09 17:51:45;;;;;;;17.63;14.13;;;;;;;5.55;52.96;96615.03;8384164;28;20236;-73
2022/12/09 17:55:50;;;;;;;20.37;17.20;;;;;;;5.53;53.16;96613.47;8383901;28;20224;-73
2022/12/09 17:59:54;;;;;;;22.80;20.40;;;;;;;5.44;53.76;96610.38;8382526;28;20233;-72
2022/12/09 18:03:58;;;;;;;21.57;18.13;;;;;;;5.45;53.73;96616.38;8383231;28;20232;-73
2022/12/09 18:08:09;;;;;;;22.60;18.33;;;;;;;5.40;53.51;96613.19;8382952;28;20232;-73
2022/12/09 18:12:12;;;;;;;24.23;20.73;;;;;;;5.49;53.72;96625.59;8383058;28;20302;-73
2022/12/09 18:16:17;;;;;;;20.20;17.50;;;;;;;5.34;53.07;96623.72;8382421;28;20496;-73
2022/12/09 18:20:20;;;;;;;18.17;16.23;;;;;;;5.37;53.48;96626.13;8383290;28;20297;-73
2022/12/09 18:24:22;;;;;;;17.93;14.77;;;;;;;5.31;53.49;96624.69;8382634;28;20239;-74
2022/12/09 18:28:27;;;;;;;16.60;14.83;;;;;;;5.55;53.36;96637.34;8383422;28;20417;-75
2022/12/09 18:32:31;;;;;;;19.47;16.77;;;;;;;5.27;53.23;96641.97;8383677;28;20446;-74
2022/12/09 18:36:38;;;;;;;19.07;15.83;;;;;;;5.35;53.42;96636.50;8382896;28;20229;-74
2022/12/09 18:40:59;;;;;;;14.70;12.53;;;;;;;5.19;53.69;96633.75;8382576;28;20288;-74
2022/12/09 18:45:02;;;;;;;16.37;13.73;;;;;;;5.23;53.62;96639.59;8381470;28;20247;-74
2022/12/09 18:49:08;;;;;;;21.43;17.57;;;;;;;5.21;53.06;96641.41;8381321;28;20237;-73
2022/12/09 18:53:11;;;;;;;24.83;20.17;;;;;;;5.22;53.23;96627.69;8381381;28;20225;-74
2022/12/09 18:57:14;;;;;;;19.53;15.90;;;;;;;5.14;53.44;96642.56;8381139;28;20225;-73
2022/12/09 19:01:19;;;;;;;18.47;15.00;;;;;;;5.16;53.73;96639.06;8381259;28;20229;-73
2022/12/09 19:05:25;;;;;;;17.30;14.20;;;;;;;5.05;53.52;96629.25;8381816;28;20289;-73
2022/12/09 19:09:32;;;;;;;18.80;14.37;;;;;;;5.03;53.59;96631.03;8381139;28;20224;-74
2022/12/09 19:13:35;;;;;;;20.17;15.50;;;;;;;5.06;53.82;96642.91;8380545;28;20232;-75
2022/12/09 19:17:39;;;;;;;19.20;16.00;;;;;;;5.01;53.79;96642.28;8380681;28;20525;-72
2022/12/09 19:21:43;;;;;;;15.37;13.77;;;;;;;5.00;53.11;96650.88;8380498;28;20221;-73